createdAt,value
2023-04-01T00:00:26.247Z,8.9
2023-04-01T00:01:33.135Z,8.8
2023-04-01T00:02:40.061Z,8.8
2023-04-01T00:03:46.771Z,8.6
2023-04-01T00:04:53.577Z,8.7
2023-04-01T00:06:00.373Z,8.6
2023-04-01T00:07:07.312Z,8.6
2023-04-01T00:08:14.056Z,8.6
2023-04-01T00:09:20.895Z,8.8
2023-04-01T00:10:27.666Z,8.8
2023-04-01T00:11:34.463Z,8.7
2023-04-01T00:12:41.288Z,8.6
2023-04-01T00:13:48.165Z,8.6
2023-04-01T00:14:54.956Z,8.6
2023-04-01T00:16:03.325Z,8.5
2023-04-01T00:17:08.904Z,8.6
2023-04-01T00:18:15.646Z,8.6
2023-04-01T00:19:22.525Z,8.6
2023-04-01T00:20:29.290Z,8.7
2023-04-01T00:21:36.191Z,8.6
2023-04-01T00:22:43.010Z,8.7
2023-04-01T00:23:49.758Z,8.7
2023-04-01T00:24:56.767Z,8.7
2023-04-01T00:26:03.691Z,8.8
2023-04-01T00:27:10.555Z,8.7
2023-04-01T00:28:17.339Z,8.7
2023-04-01T00:29:24.188Z,8.6
2023-04-01T00:30:30.958Z,8.6
2023-04-01T00:31:37.819Z,8.6
2023-04-01T00:32:44.626Z,8.6
2023-04-01T00:33:51.288Z,8.6
2023-04-01T00:34:58.122Z,8.4
2023-04-01T00:36:05.054Z,8.4
2023-04-01T00:37:17.434Z,8.3
2023-04-01T00:38:24.399Z,8.4
2023-04-01T00:39:31.262Z,8.4
2023-04-01T00:40:38.120Z,8.4
2023-04-01T00:41:44.967Z,8.5
2023-04-01T00:42:51.769Z,8.5
2023-04-01T00:43:58.576Z,8.5
2023-04-01T00:45:15.524Z,8.5
2023-04-01T00:46:27.486Z,8.5
2023-04-01T00:47:34.252Z,8.4
2023-04-01T00:48:41.006Z,8.4
2023-04-01T00:49:52.876Z,8.4
2023-04-01T00:50:59.677Z,8.5
2023-04-01T00:52:09.294Z,8.5
2023-04-01T00:53:16.154Z,8.4
2023-04-01T00:54:22.975Z,8.4
2023-04-01T00:55:30.075Z,8.5
2023-04-01T00:56:36.704Z,8.5
2023-04-01T00:57:43.465Z,8.4
2023-04-01T00:58:50.250Z,8.4
2023-04-01T00:59:59.857Z,8.4
2023-04-01T01:01:06.814Z,8.4
2023-04-01T01:02:13.745Z,8.5
2023-04-01T01:03:20.562Z,8.6
2023-04-01T01:04:27.334Z,8.7
2023-04-01T01:05:39.105Z,8.7
2023-04-01T01:06:46.031Z,8.5
2023-04-01T01:07:57.849Z,8.4
2023-04-01T01:09:07.433Z,8.4
2023-04-01T01:10:24.331Z,8.4
2023-04-01T01:11:36.936Z,8.4
2023-04-01T01:12:43.090Z,8.4
2023-04-01T01:13:54.923Z,8.4
2023-04-01T01:15:06.715Z,8.6
2023-04-01T01:16:16.417Z,8.5
2023-04-01T01:17:23.178Z,8.6
2023-04-01T01:18:38.040Z,8.7
2023-04-01T01:19:52.527Z,8.6
2023-04-01T01:21:09.419Z,8.4
2023-04-01T01:22:24.000Z,8.4
2023-04-01T01:23:33.901Z,8.4
2023-04-01T01:24:50.781Z,8.4
2023-04-01T01:26:02.723Z,8.3
2023-04-01T01:27:17.043Z,8.4
2023-04-01T01:28:23.856Z,8.4
2023-04-01T01:29:40.831Z,8.3
2023-04-01T01:30:50.294Z,8.3
2023-04-01T01:32:02.229Z,8.3
2023-04-01T01:33:20.344Z,8.4
2023-04-01T01:34:29.676Z,8.4
2023-04-01T01:35:44.261Z,8.3
2023-04-01T01:36:53.842Z,8.4
2023-04-01T01:38:00.652Z,8.3
2023-04-01T01:39:07.461Z,8.3
2023-04-01T01:40:14.278Z,8.4
2023-04-01T01:41:21.189Z,8.2
2023-04-01T01:42:27.982Z,8.1
2023-04-01T01:43:34.779Z,8.2
2023-04-01T01:44:41.557Z,8.2
2023-04-01T01:45:48.581Z,8.1
2023-04-01T01:46:55.419Z,8.2
2023-04-01T01:48:02.273Z,8.2
2023-04-01T01:49:09.051Z,8.2
2023-04-01T01:50:15.814Z,8.2
2023-04-01T01:51:22.561Z,8.2
2023-04-01T01:52:29.462Z,8.1
2023-04-01T01:53:36.166Z,8
2023-04-01T01:54:42.955Z,8
2023-04-01T01:55:54.789Z,8.1
2023-04-01T01:57:01.652Z,8.1
2023-04-01T01:58:08.497Z,8
2023-04-01T01:59:21.073Z,8.1
2023-04-01T02:00:27.928Z,8.1
2023-04-01T02:01:34.847Z,8.2
2023-04-01T02:02:41.631Z,8.2
2023-04-01T02:03:48.393Z,8.2
2023-04-01T02:04:55.208Z,8.2
2023-04-01T02:06:01.923Z,8.3
2023-04-01T02:07:08.771Z,8.1
2023-04-01T02:08:18.298Z,8
2023-04-01T02:09:25.105Z,8.1
2023-04-01T02:10:31.819Z,8
2023-04-01T02:11:38.644Z,8
2023-04-01T02:12:50.567Z,8.1
2023-04-01T02:13:57.363Z,8.1
2023-04-01T02:15:06.993Z,8.1
2023-04-01T02:16:14.134Z,8.1
2023-04-01T02:17:25.964Z,8.1
2023-04-01T02:18:32.759Z,8
2023-04-01T02:19:39.671Z,8
2023-04-01T02:20:51.535Z,8
2023-04-01T02:21:58.363Z,8.1
2023-04-01T02:23:05.204Z,8.1
2023-04-01T02:24:12.011Z,8.1
2023-04-01T02:25:18.757Z,8.1
2023-04-01T02:26:31.603Z,8.1
2023-04-01T02:27:38.334Z,8.1
2023-04-01T02:28:45.136Z,8.1
2023-04-01T02:29:51.976Z,8.2
2023-04-01T02:30:58.818Z,8.2
2023-04-01T02:32:05.546Z,8.1
2023-04-01T02:33:12.446Z,8.1
2023-04-01T02:34:19.226Z,8.2
2023-04-01T02:35:26.016Z,8.1
2023-04-01T02:36:32.898Z,8.2
2023-04-01T02:37:40.546Z,8.2
2023-04-01T02:38:46.572Z,8.2
2023-04-01T02:39:53.311Z,8.2
2023-04-01T02:41:00.032Z,8.3
2023-04-01T02:42:07.021Z,8.3
2023-04-01T02:43:13.982Z,8.2
2023-04-01T02:44:20.751Z,8.2
2023-04-01T02:45:27.643Z,8.3
2023-04-01T02:46:34.475Z,8.4
2023-04-01T02:47:41.330Z,8.3
2023-04-01T02:48:48.107Z,8.2
2023-04-01T02:49:54.945Z,8.2
2023-04-01T02:51:04.744Z,8.3
2023-04-01T02:52:11.545Z,8.4
2023-04-01T02:53:18.359Z,8.3
2023-04-01T02:54:25.226Z,8.3
2023-04-01T02:55:32.394Z,8.3
2023-04-01T02:56:38.823Z,8.3
2023-04-01T02:57:45.594Z,8.4
2023-04-01T02:58:52.397Z,8.3
2023-04-01T02:59:59.290Z,8.3
2023-04-01T03:01:06.293Z,8.4
2023-04-01T03:02:13.155Z,8.4
2023-04-01T03:03:20.057Z,8.4
2023-04-01T03:04:26.800Z,8.3
2023-04-01T03:05:33.785Z,8.4
2023-04-01T03:06:40.620Z,8.3
2023-04-01T03:07:47.373Z,8.4
2023-04-01T03:08:54.223Z,8.4
2023-04-01T03:10:01.073Z,8.4
2023-04-01T03:11:08.072Z,8.5
2023-04-01T03:12:15.001Z,8.5
2023-04-01T03:13:21.956Z,8.4
2023-04-01T03:14:28.828Z,8.4
2023-04-01T03:15:35.660Z,8.4
2023-04-01T03:16:42.464Z,8.5
2023-04-01T03:17:49.345Z,8.6
2023-04-01T03:18:56.096Z,8.5
2023-04-01T03:20:02.909Z,8.5
2023-04-01T03:21:10.050Z,8.5
2023-04-01T03:22:16.888Z,8.4
2023-04-01T03:23:23.621Z,8.4
2023-04-01T03:24:30.553Z,8.5
2023-04-01T03:25:37.421Z,8.5
2023-04-01T03:26:44.164Z,8.5
2023-04-01T03:27:50.961Z,8.5
2023-04-01T03:28:57.780Z,8.5
2023-04-01T03:30:04.864Z,8.4
2023-04-01T03:31:11.845Z,8.4
2023-04-01T03:32:18.569Z,8.5
2023-04-01T03:33:25.330Z,8.5
2023-04-01T03:34:32.078Z,8.4
2023-04-01T03:35:39.005Z,8.5
2023-04-01T03:36:45.993Z,8.5
2023-04-01T03:37:52.741Z,8.5
2023-04-01T03:38:59.541Z,8.5
2023-04-01T03:40:06.351Z,8.5
2023-04-01T03:41:13.513Z,8.6
2023-04-01T03:42:20.306Z,8.5
2023-04-01T03:43:27.060Z,8.5
2023-04-01T03:44:33.802Z,8.5
2023-04-01T03:45:40.703Z,8.5
2023-04-01T03:46:50.528Z,8.5
2023-04-01T03:47:57.354Z,8.6
2023-04-01T03:49:04.151Z,8.5
2023-04-01T03:50:10.898Z,8.5
2023-04-01T03:51:17.661Z,8.4
2023-04-01T03:52:24.475Z,8.4
2023-04-01T03:53:31.306Z,8.4
2023-04-01T03:54:38.222Z,8.4
2023-04-01T03:55:45.103Z,8.4
2023-04-01T03:56:51.964Z,8.4
2023-04-01T03:57:58.652Z,8.3
2023-04-01T03:59:05.465Z,8.4
2023-04-01T04:00:12.396Z,8.4
2023-04-01T04:01:19.348Z,8.3
2023-04-01T04:02:26.273Z,8.3
2023-04-01T04:03:33.086Z,8.2
2023-04-01T04:04:39.903Z,8.3
2023-04-01T04:05:46.694Z,8.3
2023-04-01T04:06:53.466Z,8.3
2023-04-01T04:08:00.265Z,8.5
2023-04-01T04:09:07.099Z,8.5
2023-04-01T04:10:13.931Z,8.4
2023-04-01T04:11:20.874Z,8.4
2023-04-01T04:12:27.693Z,8.4
2023-04-01T04:13:34.487Z,8.4
2023-04-01T04:14:41.279Z,8.5
2023-04-01T04:15:48.019Z,8.4
2023-04-01T04:16:54.898Z,8.3
2023-04-01T04:18:01.799Z,8.3
2023-04-01T04:19:08.546Z,8.3
2023-04-01T04:20:15.288Z,8.3
2023-04-01T04:21:22.050Z,8.4
2023-04-01T04:22:28.869Z,8.3
2023-04-01T04:23:35.831Z,8.4
2023-04-01T04:24:42.538Z,8.3
2023-04-01T04:25:49.330Z,8.3
2023-04-01T04:26:58.864Z,8.3
2023-04-01T04:28:05.630Z,8.3
2023-04-01T04:29:12.414Z,8.3
2023-04-01T04:30:19.303Z,8.3
2023-04-01T04:31:26.181Z,8.4
2023-04-01T04:32:32.908Z,8.4
2023-04-01T04:33:39.700Z,8.3
2023-04-01T04:34:46.495Z,8.3
2023-04-01T04:35:53.208Z,8.4
2023-04-01T04:36:59.989Z,8.4
2023-04-01T04:38:06.902Z,8.3
2023-04-01T04:39:13.684Z,8.3
2023-04-01T04:40:20.514Z,8.3
2023-04-01T04:41:27.374Z,8.4
2023-04-01T04:42:34.381Z,8.4
2023-04-01T04:43:41.129Z,8.5
2023-04-01T04:44:47.869Z,8.4
2023-04-01T04:45:54.661Z,8.5
2023-04-01T04:47:01.640Z,8.5
2023-04-01T04:48:08.427Z,8.4
2023-04-01T04:49:17.790Z,8.4
2023-04-01T04:50:24.525Z,8.5
2023-04-01T04:51:31.337Z,8.4
2023-04-01T04:52:38.119Z,8.5
2023-04-01T04:53:44.986Z,8.4
2023-04-01T04:54:51.805Z,8.6
2023-04-01T04:55:58.656Z,8.6
2023-04-01T04:57:05.442Z,8.6
2023-04-01T04:58:12.259Z,8.5
2023-04-01T04:59:19.083Z,8.6
2023-04-01T05:00:25.905Z,8.6
2023-04-01T05:01:32.725Z,8.6
2023-04-01T05:02:39.575Z,8.6
2023-04-01T05:03:46.363Z,8.6
2023-04-01T05:04:53.130Z,8.6
2023-04-01T05:06:00.048Z,8.7
2023-04-01T05:07:06.942Z,8.6
2023-04-01T05:08:13.736Z,8.6
2023-04-01T05:09:20.513Z,8.5
2023-04-01T05:10:27.380Z,8.6
2023-04-01T05:11:34.265Z,8.7
2023-04-01T05:12:41.075Z,8.7
2023-04-01T05:13:48.024Z,8.7
2023-04-01T05:14:54.781Z,8.6
2023-04-01T05:16:01.566Z,8.7
2023-04-01T05:17:08.625Z,8.6
2023-04-01T05:18:15.525Z,8.7
2023-04-01T05:19:22.301Z,8.9
2023-04-01T05:20:29.217Z,8.8
2023-04-01T05:21:35.927Z,8.8
2023-04-01T05:22:42.737Z,8.6
2023-04-01T05:23:49.662Z,8.6
2023-04-01T05:24:56.448Z,8.7
2023-04-01T05:26:03.228Z,8.7
2023-04-01T05:27:13.058Z,8.6
2023-04-01T05:28:19.814Z,8.6
2023-04-01T05:29:26.677Z,8.6
2023-04-01T05:30:33.480Z,8.6
2023-04-01T05:31:40.277Z,8.5
2023-04-01T05:32:47.080Z,8.6
2023-04-01T05:33:53.836Z,8.7
2023-04-01T05:35:00.694Z,8.7
2023-04-01T05:36:07.741Z,8.7
2023-04-01T05:37:14.629Z,8.7
2023-04-01T05:38:21.456Z,8.7
2023-04-01T05:39:28.224Z,8.7
2023-04-01T05:40:35.088Z,8.6
2023-04-01T05:41:41.956Z,8.6
2023-04-01T05:42:48.756Z,8.8
2023-04-01T05:43:55.545Z,8.7
2023-04-01T05:45:02.319Z,8.8
2023-04-01T05:46:09.460Z,8.7
2023-04-01T05:47:16.360Z,8.6
2023-04-01T05:48:24.033Z,8.7
2023-04-01T05:49:30.881Z,8.8
2023-04-01T05:50:38.738Z,8.7
2023-04-01T05:51:45.583Z,8.8
2023-04-01T05:52:52.319Z,8.7
2023-04-01T05:53:59.094Z,8.8
2023-04-01T05:55:05.887Z,8.7
2023-04-01T05:56:12.841Z,8.7
2023-04-01T05:57:19.593Z,8.8
2023-04-01T05:58:26.292Z,8.8
2023-04-01T05:59:33.093Z,8.9
2023-04-01T06:00:39.900Z,8.8
2023-04-01T06:01:46.724Z,8.9
2023-04-01T06:02:53.594Z,9
2023-04-01T06:04:00.481Z,8.9
2023-04-01T06:05:07.127Z,8.9
2023-04-01T06:06:18.963Z,8.9
2023-04-01T06:07:28.339Z,8.9
2023-04-01T06:08:35.219Z,8.9
2023-04-01T06:09:41.954Z,8.9
2023-04-01T06:10:48.795Z,9
2023-04-01T06:12:00.644Z,9
2023-04-01T06:13:12.551Z,9
2023-04-01T06:14:27.179Z,9.1
2023-04-01T06:15:41.731Z,9.1
2023-04-01T06:16:56.732Z,9.1
2023-04-01T06:18:11.226Z,9.3
2023-04-01T06:19:28.138Z,9.2
2023-04-01T06:20:40.150Z,9.3
2023-04-01T06:21:47.019Z,9.2
2023-04-01T06:22:58.991Z,9.3
2023-04-01T06:24:15.787Z,9.3
2023-04-01T06:25:25.221Z,9.3
2023-04-01T06:26:40.059Z,9.3
2023-04-01T06:27:46.902Z,9.4
2023-04-01T06:28:58.793Z,9.3
2023-04-01T06:30:10.742Z,9.4
2023-04-01T06:31:27.799Z,9.4
2023-04-01T06:32:44.585Z,9.4
2023-04-01T06:33:56.422Z,9.4
2023-04-01T06:35:13.416Z,9.3
2023-04-01T06:36:30.280Z,9.4
2023-04-01T06:37:37.151Z,9.4
2023-04-01T06:38:49.068Z,9.5
2023-04-01T06:40:06.036Z,9.5
2023-04-01T06:41:22.926Z,9.5
2023-04-01T06:42:39.850Z,9.4
2023-04-01T06:43:54.412Z,9.4
2023-04-01T06:45:09.220Z,9.5
2023-04-01T06:46:21.265Z,9.5
2023-04-01T06:47:28.132Z,9.6
2023-04-01T06:48:40.768Z,9.5
2023-04-01T06:49:55.432Z,9.6
2023-04-01T06:51:08.083Z,9.8
2023-04-01T06:52:22.426Z,9.9
2023-04-01T06:53:39.349Z,9.9
2023-04-01T06:54:48.809Z,9.7
2023-04-01T06:56:05.756Z,9.7
2023-04-01T06:57:12.707Z,9.8
2023-04-01T06:58:29.536Z,9.7
2023-04-01T06:59:41.354Z,9.9
2023-04-01T07:00:48.222Z,10
2023-04-01T07:01:55.076Z,10
2023-04-01T07:03:06.667Z,10.1
2023-04-01T07:04:21.436Z,10
2023-04-01T07:05:31.128Z,10.1
2023-04-01T07:06:37.655Z,10.2
2023-04-01T07:07:54.564Z,10.2
2023-04-01T07:09:02.853Z,10.2
2023-04-01T07:10:08.236Z,10.2
2023-04-01T07:11:15.258Z,10.2
2023-04-01T07:12:22.038Z,10.4
2023-04-01T07:13:36.884Z,10.3
2023-04-01T07:14:48.590Z,10.3
2023-04-01T07:15:56.073Z,10.4
2023-04-01T07:17:14.676Z,10.2
2023-04-01T07:18:24.460Z,10.3
2023-04-01T07:19:39.129Z,10.3
2023-04-01T07:20:48.795Z,10.4
2023-04-01T07:21:55.539Z,10.3
2023-04-01T07:23:07.379Z,10.4
2023-04-01T07:24:19.619Z,10.3
2023-04-01T07:25:31.820Z,10.3
2023-04-01T07:26:38.307Z,10.3
2023-04-01T07:27:45.114Z,10.3
2023-04-01T07:28:51.912Z,10.4
2023-04-01T07:29:58.743Z,10.4
2023-04-01T07:31:05.611Z,10.3
2023-04-01T07:32:22.605Z,10.3
2023-04-01T07:33:34.370Z,10.4
2023-04-01T07:34:49.194Z,10.4
2023-04-01T07:35:55.986Z,10.5
2023-04-01T07:37:10.634Z,10.6
2023-04-01T07:38:22.525Z,10.6
2023-04-01T07:39:34.428Z,10.7
2023-04-01T07:40:46.296Z,10.5
2023-04-01T07:42:03.303Z,10.4
2023-04-01T07:43:12.998Z,10.4
2023-04-01T07:44:27.583Z,10.5
2023-04-01T07:45:44.594Z,10.5
2023-04-01T07:46:57.098Z,10.5
2023-04-01T07:48:14.126Z,10.4
2023-04-01T07:49:30.962Z,10.4
2023-04-01T07:50:47.125Z,10.3
2023-04-01T07:51:57.743Z,10.5
2023-04-01T07:53:12.361Z,10.7
2023-04-01T07:54:22.123Z,10.7
2023-04-01T07:55:36.724Z,10.6
2023-04-01T07:56:49.216Z,10.6
2023-04-01T07:57:55.990Z,10.6
2023-04-01T07:59:07.957Z,10.5
2023-04-01T08:00:20.046Z,10.6
2023-04-01T08:01:27.028Z,10.5
2023-04-01T08:02:44.087Z,10.6
2023-04-01T08:04:01.056Z,10.5
2023-04-01T08:05:17.844Z,10.6
2023-04-01T08:06:29.682Z,10.5
2023-04-01T08:07:41.479Z,10.4
2023-04-01T08:08:55.881Z,10.5
2023-04-01T08:10:10.579Z,10.5
2023-04-01T08:11:22.451Z,10.9
2023-04-01T08:12:29.241Z,10.9
2023-04-01T08:13:49.267Z,10.9
2023-04-01T08:15:06.191Z,11
2023-04-01T08:16:23.133Z,10.7
2023-04-01T08:17:37.593Z,10.9
2023-04-01T08:18:52.471Z,11
2023-04-01T08:20:04.331Z,10.9
2023-04-01T08:21:18.886Z,10.7
2023-04-01T08:22:25.608Z,10.9
2023-04-01T08:23:37.545Z,10.9
2023-04-01T08:24:48.249Z,10.8
2023-04-01T08:25:53.859Z,10.7
2023-04-01T08:27:00.705Z,10.8
2023-04-01T08:28:07.524Z,11
2023-04-01T08:29:14.727Z,11
2023-04-01T08:30:24.472Z,10.9
2023-04-01T08:31:31.238Z,11
2023-04-01T08:32:48.198Z,11
2023-04-01T08:34:00.088Z,10.9
2023-04-01T08:35:06.918Z,10.9
2023-04-01T08:36:18.734Z,10.9
2023-04-01T08:37:33.436Z,11
2023-04-01T08:38:40.276Z,11
2023-04-01T08:39:54.921Z,11.1
2023-04-01T08:41:01.840Z,11.1
2023-04-01T08:42:11.388Z,11
2023-04-01T08:43:21.026Z,11.2
2023-04-01T08:44:37.931Z,11.2
2023-04-01T08:45:47.562Z,11.4
2023-04-01T08:47:04.438Z,11.6
2023-04-01T08:48:16.400Z,11.5
2023-04-01T08:49:33.253Z,11.4
2023-04-01T08:50:47.768Z,11.4
2023-04-01T08:52:04.678Z,11.5
2023-04-01T08:53:14.309Z,11.3
2023-04-01T08:54:29.165Z,11.4
2023-04-01T08:55:41.357Z,11.4
2023-04-01T08:56:48.160Z,11.4
2023-04-01T08:57:56.231Z,11.5
2023-04-01T08:59:04.697Z,11.4
2023-04-01T09:00:21.666Z,11.4
2023-04-01T09:01:33.543Z,11.5
2023-04-01T09:02:45.377Z,11.5
2023-04-01T09:03:59.815Z,11.4
2023-04-01T09:05:09.307Z,11.4
2023-04-01T09:06:26.284Z,11.5
2023-04-01T09:07:40.716Z,11.5
2023-04-01T09:08:50.553Z,11.6
2023-04-01T09:10:07.471Z,11.5
2023-04-01T09:11:22.388Z,11.5
2023-04-01T09:12:29.447Z,11.3
2023-04-01T09:13:41.002Z,11.5
2023-04-01T09:14:55.997Z,11.5
2023-04-01T09:16:12.901Z,11.3
2023-04-01T09:17:22.768Z,11.2
2023-04-01T09:18:39.711Z,11.3
2023-04-01T09:19:54.071Z,11.1
2023-04-01T09:21:08.841Z,11.4
2023-04-01T09:22:25.769Z,11.3
2023-04-01T09:23:35.542Z,11.3
2023-04-01T09:24:45.243Z,11
2023-04-01T09:26:02.213Z,11.1
2023-04-01T09:27:11.724Z,11.2
2023-04-01T09:28:26.249Z,11.1
2023-04-01T09:29:38.172Z,11.2
2023-04-01T09:30:45.009Z,11.2
2023-04-01T09:32:01.911Z,11.2
2023-04-01T09:33:18.766Z,11.3
2023-04-01T09:34:33.372Z,11.3
2023-04-01T09:35:50.343Z,11.5
2023-04-01T09:37:07.226Z,11.7
2023-04-01T09:38:21.957Z,12.1
2023-04-01T09:39:38.904Z,12.2
2023-04-01T09:40:55.981Z,12.3
2023-04-01T09:42:12.887Z,12.4
2023-04-01T09:43:24.739Z,12.1
2023-04-01T09:44:34.606Z,12.1
2023-04-01T09:45:41.470Z,12.2
2023-04-01T09:46:48.349Z,12.1
2023-04-01T09:48:02.993Z,12.1
2023-04-01T09:49:15.067Z,12.1
2023-04-01T09:50:29.961Z,12
2023-04-01T09:51:39.543Z,12.2
2023-04-01T09:52:56.593Z,12.2
2023-04-01T09:54:13.458Z,12.4
2023-04-01T09:55:25.277Z,12.5
2023-04-01T09:56:34.609Z,12.5
2023-04-01T09:57:47.372Z,12.6
2023-04-01T09:58:59.300Z,12.5
2023-04-01T10:00:06.183Z,12.6
2023-04-01T10:01:18.144Z,12.4
2023-04-01T10:02:30.061Z,12.6
2023-04-01T10:03:44.603Z,12.9
2023-04-01T10:05:01.632Z,12.8
2023-04-01T10:06:13.580Z,13.1
2023-04-01T10:07:20.301Z,13.3
2023-04-01T10:08:32.124Z,13.4
2023-04-01T10:09:43.991Z,13.7
2023-04-01T10:11:00.927Z,13.7
2023-04-01T10:12:12.787Z,13.8
2023-04-01T10:13:24.601Z,13.4
2023-04-01T10:14:34.377Z,13.2
2023-04-01T10:15:46.234Z,13.4
2023-04-01T10:17:03.277Z,13.7
2023-04-01T10:18:20.269Z,13.8
2023-04-01T10:19:37.309Z,13.9
2023-04-01T10:20:49.244Z,13.6
2023-04-01T10:22:03.772Z,13.7
2023-04-01T10:23:15.665Z,13.7
2023-04-01T10:24:25.227Z,13.9
2023-04-01T10:25:37.320Z,14
2023-04-01T10:26:54.273Z,13.7
2023-04-01T10:28:06.097Z,13.8
2023-04-01T10:29:20.939Z,13.9
2023-04-01T10:30:32.792Z,13.9
2023-04-01T10:31:49.749Z,13.8
2023-04-01T10:33:01.624Z,13.7
2023-04-01T10:34:16.343Z,13.7
2023-04-01T10:35:31.254Z,13.5
2023-04-01T10:36:42.922Z,13.2
2023-04-01T10:37:54.939Z,13
2023-04-01T10:39:09.787Z,13.1
2023-04-01T10:40:19.678Z,13.1
2023-04-01T10:41:34.274Z,12.9
2023-04-01T10:42:46.190Z,12.7
2023-04-01T10:44:00.749Z,12.8
2023-04-01T10:45:15.626Z,13.2
2023-04-01T10:46:32.593Z,13.3
2023-04-01T10:47:44.424Z,13.4
2023-04-01T10:48:59.083Z,13.4
2023-04-01T10:50:15.992Z,13.1
2023-04-01T10:51:32.907Z,13
2023-04-01T10:52:49.857Z,13.1
2023-04-01T10:54:04.775Z,13.2
2023-04-01T10:55:21.662Z,13.3
2023-04-01T10:56:38.544Z,13.4
2023-04-01T10:57:53.224Z,13.6
2023-04-01T10:59:08.031Z,13.9
2023-04-01T11:00:19.833Z,14.4
2023-04-01T11:01:31.845Z,14.4
2023-04-01T11:02:41.622Z,14.4
2023-04-01T11:03:53.719Z,14.5
2023-04-01T11:05:10.412Z,14.3
2023-04-01T11:06:27.405Z,14.3
2023-04-01T11:07:48.361Z,14.2
2023-04-01T11:08:56.142Z,14.3
2023-04-01T11:10:10.485Z,14.1
2023-04-01T11:11:25.223Z,13.9
2023-04-01T11:12:42.227Z,13.4
2023-04-01T11:13:54.645Z,13.5
2023-04-01T11:15:11.539Z,13.7
2023-04-01T11:16:23.531Z,13.5
2023-04-01T11:17:40.409Z,13.5
2023-04-01T11:18:55.054Z,13.4
2023-04-01T11:20:11.907Z,13.4
2023-04-01T11:21:26.827Z,13.4
2023-04-01T11:22:43.632Z,13.4
2023-04-01T11:24:04.839Z,13.5
2023-04-01T11:25:13.183Z,13.5
2023-04-01T11:26:25.064Z,13.4
2023-04-01T11:27:38.995Z,13.3
2023-04-01T11:28:51.760Z,13
2023-04-01T11:30:03.734Z,12.9
2023-04-01T11:31:18.551Z,12.8
2023-04-01T11:32:30.367Z,12.8
2023-04-01T11:33:47.336Z,12.8
2023-04-01T11:35:04.214Z,12.7
2023-04-01T11:36:21.424Z,12.9
2023-04-01T11:37:33.237Z,13
2023-04-01T11:38:42.741Z,12.9
2023-04-01T11:39:52.334Z,13.2
2023-04-01T11:41:04.159Z,13.4
2023-04-01T11:42:21.138Z,13.3
2023-04-01T11:43:33.314Z,13.4
2023-04-01T11:44:42.773Z,13.2
2023-04-01T11:45:54.635Z,13.3
2023-04-01T11:47:06.445Z,13.3
2023-04-01T11:48:23.475Z,13.1
2023-04-01T11:49:35.318Z,13.1
2023-04-01T11:50:52.158Z,13.1
2023-04-01T11:52:07.156Z,13.2
2023-04-01T11:53:14.002Z,13.3
2023-04-01T11:54:25.945Z,13.5
2023-04-01T11:55:33.102Z,13.6
2023-04-01T11:56:49.778Z,13.6
2023-04-01T11:58:01.639Z,13.6
2023-04-01T11:59:18.612Z,13.5
2023-04-01T12:00:30.532Z,13.5
2023-04-01T12:01:42.481Z,13.6
2023-04-01T12:02:59.526Z,13.7
2023-04-01T12:04:11.516Z,13.9
2023-04-01T12:05:23.322Z,13.9
2023-04-01T12:06:40.247Z,14
2023-04-01T12:07:57.196Z,14
2023-04-01T12:09:11.805Z,14.1
2023-04-01T12:10:28.824Z,14.1
2023-04-01T12:11:40.627Z,13.9
2023-04-01T12:13:00.403Z,13.9
2023-04-01T12:14:07.072Z,14.1
2023-04-01T12:15:23.996Z,14.1
2023-04-01T12:16:33.461Z,14
2023-04-01T12:17:50.496Z,14.1
2023-04-01T12:19:02.783Z,14.1
2023-04-01T12:20:19.689Z,14.2
2023-04-01T12:21:31.534Z,14.1
2023-04-01T12:22:40.979Z,14
2023-04-01T12:23:57.807Z,13.9
2023-04-01T12:25:14.773Z,14.1
2023-04-01T12:26:31.684Z,14
2023-04-01T12:27:46.139Z,13.9
2023-04-01T12:29:02.990Z,13.9
2023-04-01T12:30:20.091Z,13.8
2023-04-01T12:31:34.533Z,13.6
2023-04-01T12:32:46.417Z,13.6
2023-04-01T12:33:58.178Z,13.6
2023-04-01T12:35:09.988Z,13.5
2023-04-01T12:36:24.628Z,13.5
2023-04-01T12:37:39.113Z,13.6
2023-04-01T12:38:53.584Z,13.6
2023-04-01T12:40:10.459Z,13.7
2023-04-01T12:41:20.046Z,13.7
2023-04-01T12:42:37.001Z,13.8
2023-04-01T12:43:51.420Z,13.9
2023-04-01T12:45:04.173Z,13.9
2023-04-01T12:46:19.183Z,13.9
2023-04-01T12:47:31.258Z,14
2023-04-01T12:48:48.056Z,13.9
2023-04-01T12:50:05.055Z,13.9
2023-04-01T12:51:21.867Z,13.7
2023-04-01T12:52:38.736Z,13.6
2023-04-01T12:53:53.639Z,13.7
2023-04-01T12:55:05.421Z,13.7
2023-04-01T12:56:12.191Z,13.8
2023-04-01T12:57:19.018Z,13.9
2023-04-01T12:58:33.431Z,13.9
2023-04-01T12:59:45.242Z,14
2023-04-01T13:00:52.137Z,14
2023-04-01T13:02:09.077Z,13.9
2023-04-01T13:03:20.923Z,13.9
2023-04-01T13:04:37.780Z,14
2023-04-01T13:05:49.599Z,13.9
2023-04-01T13:07:06.511Z,13.9
2023-04-01T13:08:18.312Z,13.9
2023-04-01T13:09:33.940Z,13.9
2023-04-01T13:10:45.739Z,13.8
2023-04-01T13:12:02.666Z,13.7
2023-04-01T13:13:19.486Z,13.7
2023-04-01T13:14:32.372Z,13.7
2023-04-01T13:15:43.568Z,13.5
2023-04-01T13:16:55.486Z,13.4
2023-04-01T13:18:07.448Z,13.5
2023-04-01T13:19:21.876Z,13.5
2023-04-01T13:20:31.667Z,13.4
2023-04-01T13:21:41.224Z,13.4
2023-04-01T13:22:58.116Z,13.4
2023-04-01T13:24:14.986Z,13.2
2023-04-01T13:25:32.023Z,13.3
2023-04-01T13:26:48.884Z,13.2
2023-04-01T13:28:05.812Z,13.3
2023-04-01T13:29:15.269Z,13.3
2023-04-01T13:30:24.701Z,13.2
2023-04-01T13:31:36.523Z,13.2
2023-04-01T13:32:45.878Z,13.3
2023-04-01T13:33:57.632Z,13.2
2023-04-01T13:35:04.426Z,13.2
2023-04-01T13:36:16.226Z,13.4
2023-04-01T13:37:30.503Z,13.5
2023-04-01T13:38:42.480Z,13.6
2023-04-01T13:39:52.179Z,13.8
2023-04-01T13:41:06.736Z,13.9
2023-04-01T13:42:16.388Z,14
2023-04-01T13:43:23.299Z,13.9
2023-04-01T13:44:30.208Z,13.9
2023-04-01T13:45:42.137Z,13.9
2023-04-01T13:46:58.971Z,13.8
2023-04-01T13:48:16.034Z,13.7
2023-04-01T13:49:30.885Z,13.7
2023-04-01T13:50:42.767Z,13.9
2023-04-01T13:51:59.638Z,13.9
2023-04-01T13:53:16.538Z,13.9
2023-04-01T13:54:33.468Z,13.9
2023-04-01T13:55:40.331Z,13.7
2023-04-01T13:56:57.267Z,13.8
2023-04-01T13:58:11.690Z,13.7
2023-04-01T13:59:23.638Z,13.8
2023-04-01T14:00:36.639Z,13.8
2023-04-01T14:01:53.426Z,13.9
2023-04-01T14:03:05.353Z,13.9
2023-04-01T14:04:22.190Z,14
2023-04-01T14:05:43.564Z,14.1
2023-04-01T14:06:48.853Z,14.2
2023-04-01T14:08:00.702Z,14.2
2023-04-01T14:09:15.266Z,14.3
2023-04-01T14:10:32.452Z,14.2
2023-04-01T14:11:47.009Z,13.9
2023-04-01T14:12:56.647Z,13.9
2023-04-01T14:14:13.587Z,14
2023-04-01T14:15:23.169Z,13.7
2023-04-01T14:16:40.093Z,13.8
2023-04-01T14:17:57.109Z,13.9
2023-04-01T14:19:11.865Z,13.9
2023-04-01T14:20:29.006Z,13.9
2023-04-01T14:21:40.866Z,14
2023-04-01T14:22:47.758Z,14.1
2023-04-01T14:24:04.674Z,14.2
2023-04-01T14:25:21.695Z,14.2
2023-04-01T14:26:38.617Z,14.2
2023-04-01T14:27:53.580Z,14.2
2023-04-01T14:29:05.451Z,14.3
2023-04-01T14:30:17.261Z,14.3
2023-04-01T14:31:34.136Z,14.4
2023-04-01T14:32:46.155Z,14.4
2023-04-01T14:33:56.092Z,14.3
2023-04-01T14:35:12.926Z,14.2
2023-04-01T14:36:24.779Z,14.2
2023-04-01T14:37:36.882Z,14.1
2023-04-01T14:38:51.704Z,14.1
2023-04-01T14:40:03.652Z,14.2
2023-04-01T14:41:20.560Z,14
2023-04-01T14:42:32.351Z,14.1
2023-04-01T14:43:49.233Z,14.2
2023-04-01T14:45:03.745Z,14.1
2023-04-01T14:46:20.729Z,14
2023-04-01T14:47:32.562Z,14
2023-04-01T14:48:39.345Z,14.1
2023-04-01T14:49:56.313Z,14
2023-04-01T14:51:13.245Z,13.8
2023-04-01T14:52:22.802Z,13.9
2023-04-01T14:53:32.451Z,13.9
2023-04-01T14:54:39.212Z,13.9
2023-04-01T14:55:45.937Z,13.9
2023-04-01T14:56:57.805Z,13.8
2023-04-01T14:58:09.681Z,13.9
2023-04-01T14:59:19.232Z,13.7
2023-04-01T15:00:25.997Z,13.2
2023-04-01T15:01:32.841Z,13.1
2023-04-01T15:02:42.548Z,12.9
2023-04-01T15:03:49.387Z,12.6
2023-04-01T15:04:56.228Z,12.6
2023-04-01T15:06:10.762Z,12.3
2023-04-01T15:07:27.610Z,12.2
2023-04-01T15:08:42.557Z,11.9
2023-04-01T15:09:54.382Z,11.8
2023-04-01T15:11:03.787Z,11.6
2023-04-01T15:12:15.634Z,11.4
2023-04-01T15:13:32.578Z,11.5
2023-04-01T15:14:47.186Z,11.6
2023-04-01T15:15:59.074Z,11.6
2023-04-01T15:17:10.866Z,11.6
2023-04-01T15:18:22.791Z,11.5
2023-04-01T15:19:34.673Z,11.5
2023-04-01T15:20:46.549Z,11.7
2023-04-01T15:22:03.536Z,11.6
2023-04-01T15:23:20.433Z,11.6
2023-04-01T15:24:35.004Z,11.9
2023-04-01T15:25:49.680Z,12.1
2023-04-01T15:27:06.565Z,12.3
2023-04-01T15:28:13.329Z,12.4
2023-04-01T15:29:25.123Z,12.4
2023-04-01T15:30:39.650Z,12.5
2023-04-01T15:31:56.531Z,12.5
2023-04-01T15:33:13.786Z,12.5
2023-04-01T15:34:25.663Z,12.6
2023-04-01T15:35:37.521Z,12.7
2023-04-01T15:36:47.396Z,12.7
2023-04-01T15:38:04.437Z,12.6
2023-04-01T15:39:11.198Z,12.6
2023-04-01T15:40:17.979Z,12.7
2023-04-01T15:41:34.946Z,12.7
2023-04-01T15:42:46.839Z,12.8
2023-04-01T15:43:58.675Z,12.7
2023-04-01T15:45:05.478Z,12.7
2023-04-01T15:46:15.147Z,12.7
2023-04-01T15:47:32.025Z,12.7
2023-04-01T15:48:46.759Z,12.8
2023-04-01T15:50:03.676Z,12.9
2023-04-01T15:51:20.576Z,12.7
2023-04-01T15:52:32.387Z,12.6
2023-04-01T15:53:47.217Z,12.5
2023-04-01T15:55:04.180Z,12.3
2023-04-01T15:56:19.005Z,12.3
2023-04-01T15:57:35.936Z,12.2
2023-04-01T15:58:47.766Z,12.2
2023-04-01T16:00:02.586Z,12.3
2023-04-01T16:01:19.658Z,12.2